sensor_id;sensor_type;location;lat;lon;timestamp;pressure;altitude;pressure_sealevel;temperature;humidity
52745;BME280;38637;49.984;20.426;2023-12-20T00:00:58;98786.31;;;5.40;64.95
52745;BME280;38637;49.984;20.426;2023-12-20T00:03:23;98780.91;;;5.40;65.17
52745;BME280;38637;49.984;20.426;2023-12-20T00:05:49;98774.84;;;5.50;63.34
52745;BME280;38637;49.984;20.426;2023-12-20T00:08:15;98775.06;;;5.60;62.20
52745;BME280;38637;49.984;20.426;2023-12-20T00:10:40;98767.81;;;5.66;61.50
52745;BME280;38637;49.984;20.426;2023-12-20T00:13:05;98765.63;;;5.80;59.96
52745;BME280;38637;49.984;20.426;2023-12-20T00:15:32;98775.50;;;6.03;55.51
52745;BME280;38637;49.984;20.426;2023-12-20T00:17:57;98761.19;;;6.24;56.11
52745;BME280;38637;49.984;20.426;2023-12-20T00:20:23;98758.22;;;6.42;54.01
52745;BME280;38637;49.984;20.426;2023-12-20T00:22:48;98758.75;;;6.61;53.41
52745;BME280;38637;49.984;20.426;2023-12-20T00:25:13;98757.88;;;6.78;51.15
52745;BME280;38637;49.984;20.426;2023-12-20T00:27:39;98748.53;;;6.90;51.73
52745;BME280;38637;49.984;20.426;2023-12-20T00:30:05;98754.06;;;7.01;50.65
52745;BME280;38637;49.984;20.426;2023-12-20T00:32:30;98751.59;;;7.21;47.12
52745;BME280;38637;49.984;20.426;2023-12-20T00:34:55;98749.06;;;7.36;47.87
52745;BME280;38637;49.984;20.426;2023-12-20T00:37:21;98743.72;;;7.47;46.15
52745;BME280;38637;49.984;20.426;2023-12-20T00:39:47;98742.28;;;7.66;46.76
52745;BME280;38637;49.984;20.426;2023-12-20T00:42:13;98734.69;;;7.68;45.21
52745;BME280;38637;49.984;20.426;2023-12-20T00:44:38;98746.47;;;7.79;45.66
52745;BME280;38637;49.984;20.426;2023-12-20T00:47:03;98742.94;;;7.83;44.92
52745;BME280;38637;49.984;20.426;2023-12-20T00:49:29;98733.78;;;7.90;44.12
52745;BME280;38637;49.984;20.426;2023-12-20T00:51:54;98733.00;;;7.94;44.10
52745;BME280;38637;49.984;20.426;2023-12-20T00:54:19;98730.34;;;7.99;43.63
52745;BME280;38637;49.984;20.426;2023-12-20T00:56:45;98737.16;;;8.02;43.77
52745;BME280;38637;49.984;20.426;2023-12-20T00:59:10;98693.84;;;7.90;43.72
52745;BME280;38637;49.984;20.426;2023-12-20T01:01:35;98733.13;;;8.10;43.07
52745;BME280;38637;49.984;20.426;2023-12-20T01:04:01;98722.28;;;8.15;42.93
52745;BME280;38637;49.984;20.426;2023-12-20T01:06:26;98724.72;;;8.16;43.33
52745;BME280;38637;49.984;20.426;2023-12-20T01:08:51;98711.66;;;8.13;42.10
52745;BME280;38637;49.984;20.426;2023-12-20T01:11:17;98709.53;;;8.20;41.93
52745;BME280;38637;49.984;20.426;2023-12-20T01:13:42;98719.06;;;8.23;42.25
52745;BME280;38637;49.984;20.426;2023-12-20T01:16:10;98713.09;;;8.26;43.27
52745;BME280;38637;49.984;20.426;2023-12-20T01:18:36;98721.25;;;8.26;43.04
52745;BME280;38637;49.984;20.426;2023-12-20T01:21:02;98719.91;;;8.23;43.51
52745;BME280;38637;49.984;20.426;2023-12-20T01:23:31;98727.19;;;8.18;43.73
52745;BME280;38637;49.984;20.426;2023-12-20T01:25:57;98719.56;;;8.15;43.77
52745;BME280;38637;49.984;20.426;2023-12-20T01:28:25;98718.44;;;8.11;44.06
52745;BME280;38637;49.984;20.426;2023-12-20T01:30:50;98719.47;;;8.04;44.79
52745;BME280;38637;49.984;20.426;2023-12-20T01:33:15;98706.63;;;7.95;44.63
52745;BME280;38637;49.984;20.426;2023-12-20T01:35:40;98714.78;;;7.95;44.48
52745;BME280;38637;49.984;20.426;2023-12-20T01:38:06;98708.25;;;7.91;44.50
52745;BME280;38637;49.984;20.426;2023-12-20T01:40:32;98697.88;;;7.88;44.03
52745;BME280;38637;49.984;20.426;2023-12-20T01:42:59;98693.53;;;7.87;44.38
52745;BME280;38637;49.984;20.426;2023-12-20T01:45:24;98682.09;;;7.85;43.47
52745;BME280;38637;49.984;20.426;2023-12-20T01:47:50;98641.13;;;7.59;43.98
52745;BME280;38637;49.984;20.426;2023-12-20T01:50:16;98666.84;;;7.78;42.72
52745;BME280;38637;49.984;20.426;2023-12-20T01:52:42;98662.22;;;7.79;43.38
52745;BME280;38637;49.984;20.426;2023-12-20T01:55:08;98651.06;;;7.75;42.34
52745;BME280;38637;49.984;20.426;2023-12-20T01:57:39;98643.47;;;7.82;42.05
52745;BME280;38637;49.984;20.426;2023-12-20T02:00:06;98651.09;;;7.86;42.05
52745;BME280;38637;49.984;20.426;2023-12-20T02:02:32;98647.34;;;7.87;42.65
52745;BME280;38637;49.984;20.426;2023-12-20T02:04:58;98641.06;;;7.86;41.52
52745;BME280;38637;49.984;20.426;2023-12-20T02:07:24;98634.56;;;7.92;41.16
52745;BME280;38637;49.984;20.426;2023-12-20T02:09:50;98633.75;;;7.92;41.43
52745;BME280;38637;49.984;20.426;2023-12-20T02:12:15;98642.19;;;7.95;40.43
52745;BME280;38637;49.984;20.426;2023-12-20T02:14:42;98635.41;;;7.98;40.26
52745;BME280;38637;49.984;20.426;2023-12-20T02:17:07;98622.34;;;7.90;40.23
52745;BME280;38637;49.984;20.426;2023-12-20T02:19:33;98627.53;;;7.96;40.67
52745;BME280;38637;49.984;20.426;2023-12-20T02:22:13;98607.69;;;7.96;40.77
52745;BME280;38637;49.984;20.426;2023-12-20T02:24:38;98586.06;;;7.74;40.40
52745;BME280;38637;49.984;20.426;2023-12-20T02:27:06;98614.72;;;7.92;41.09
52745;BME280;38637;49.984;20.426;2023-12-20T02:29:33;98609.00;;;7.88;40.79
52745;BME280;38637;49.984;20.426;2023-12-20T02:31:58;98607.63;;;7.86;40.65
52745;BME280;38637;49.984;20.426;2023-12-20T02:34:23;98610.63;;;7.89;40.70
52745;BME280;38637;49.984;20.426;2023-12-20T02:36:48;98613.66;;;7.93;40.32
52745;BME280;38637;49.984;20.426;2023-12-20T02:39:14;98608.75;;;7.95;40.44
52745;BME280;38637;49.984;20.426;2023-12-20T02:41:39;98612.28;;;7.95;40.55
52745;BME280;38637;49.984;20.426;2023-12-20T02:44:04;98612.03;;;7.97;40.40
52745;BME280;38637;49.984;20.426;2023-12-20T02:46:30;98612.84;;;7.97;40.64
52745;BME280;38637;49.984;20.426;2023-12-20T02:48:55;98607.19;;;7.99;40.74
52745;BME280;38637;49.984;20.426;2023-12-20T02:51:20;98593.31;;;8.00;40.37
52745;BME280;38637;49.984;20.426;2023-12-20T02:53:46;98593.84;;;7.97;40.48
52745;BME280;38637;49.984;20.426;2023-12-20T02:56:11;98601.75;;;7.99;40.59
52745;BME280;38637;49.984;20.426;2023-12-20T02:58:36;98595.16;;;7.95;40.57
52745;BME280;38637;49.984;20.426;2023-12-20T03:01:02;98552.41;;;7.75;40.33
52745;BME280;38637;49.984;20.426;2023-12-20T03:03:27;98585.94;;;7.96;40.12
52745;BME280;38637;49.984;20.426;2023-12-20T03:05:52;98583.22;;;7.96;40.42
52745;BME280;38637;49.984;20.426;2023-12-20T03:08:18;98550.75;;;7.74;40.36
52745;BME280;38637;49.984;20.426;2023-12-20T03:10:43;98576.66;;;7.87;40.78
52745;BME280;38637;49.984;20.426;2023-12-20T03:13:08;98579.06;;;7.83;40.50
52745;BME280;38637;49.984;20.426;2023-12-20T03:15:34;98584.50;;;7.78;40.75
52745;BME280;38637;49.984;20.426;2023-12-20T03:17:59;98592.84;;;7.71;41.53
52745;BME280;38637;49.984;20.426;2023-12-20T03:20:25;98600.16;;;7.66;41.84
52745;BME280;38637;49.984;20.426;2023-12-20T03:22:51;98600.91;;;7.56;42.18
52745;BME280;38637;49.984;20.426;2023-12-20T03:25:16;98599.78;;;7.52;42.04
52745;BME280;38637;49.984;20.426;2023-12-20T03:27:42;98604.13;;;7.48;42.19
52745;BME280;38637;49.984;20.426;2023-12-20T03:30:08;98600.84;;;7.46;42.07
52745;BME280;38637;49.984;20.426;2023-12-20T03:32:33;98594.84;;;7.44;42.23
52745;BME280;38637;49.984;20.426;2023-12-20T03:34:58;98599.75;;;7.47;41.49
52745;BME280;38637;49.984;20.426;2023-12-20T03:37:24;98595.97;;;7.48;41.87
52745;BME280;38637;49.984;20.426;2023-12-20T03:39:49;98598.41;;;7.49;41.28
52745;BME280;38637;49.984;20.426;2023-12-20T03:42:14;98591.94;;;7.55;41.55
52745;BME280;38637;49.984;20.426;2023-12-20T03:44:40;98595.75;;;7.54;41.32
52745;BME280;38637;49.984;20.426;2023-12-20T03:47:06;98591.94;;;7.55;41.77
52745;BME280;38637;49.984;20.426;2023-12-20T03:49:31;98600.91;;;7.56;41.49
52745;BME280;38637;49.984;20.426;2023-12-20T03:51:56;98606.91;;;7.58;42.14
52745;BME280;38637;49.984;20.426;2023-12-20T03:54:21;98605.81;;;7.59;41.83
52745;BME280;38637;49.984;20.426;2023-12-20T03:56:47;98580.72;;;7.47;41.96
52745;BME280;38637;49.984;20.426;2023-12-20T03:59:12;98603.66;;;7.61;41.79
52745;BME280;38637;49.984;20.426;2023-12-20T04:01:37;98603.41;;;7.63;41.86
52745;BME280;38637;49.984;20.426;2023-12-20T04:04:03;98593.34;;;7.63;41.65
52745;BME280;38637;49.984;20.426;2023-12-20T04:06:28;98588.47;;;7.65;41.54
52745;BME280;38637;49.984;20.426;2023-12-20T04:08:54;98583.59;;;7.67;41.19
52745;BME280;38637;49.984;20.426;2023-12-20T04:11:19;98594.50;;;7.72;41.77
52745;BME280;38637;49.984;20.426;2023-12-20T04:13:44;98591.50;;;7.74;41.30
52745;BME280;38637;49.984;20.426;2023-12-20T04:16:10;98583.09;;;7.75;41.67
52745;BME280;38637;49.984;20.426;2023-12-20T04:18:35;98578.22;;;7.77;41.24
52745;BME280;38637;49.984;20.426;2023-12-20T04:21:01;98576.63;;;7.81;41.04
52745;BME280;38637;49.984;20.426;2023-12-20T04:23:26;98573.38;;;7.85;41.15
52745;BME280;38637;49.984;20.426;2023-12-20T04:25:52;98576.38;;;7.88;40.94
52745;BME280;38637;49.984;20.426;2023-12-20T04:28:17;98574.75;;;7.92;40.82
52745;BME280;38637;49.984;20.426;2023-12-20T04:30:42;98576.69;;;7.97;40.85
52745;BME280;38637;49.984;20.426;2023-12-20T04:33:08;98571.28;;;7.97;40.67
52745;BME280;38637;49.984;20.426;2023-12-20T04:35:33;98576.75;;;8.02;41.17
52745;BME280;38637;49.984;20.426;2023-12-20T04:37:58;98576.75;;;8.02;40.77
52745;BME280;38637;49.984;20.426;2023-12-20T04:40:24;98574.84;;;8.02;41.58
52745;BME280;38637;49.984;20.426;2023-12-20T04:42:49;98581.34;;;8.01;41.07
52745;BME280;38637;49.984;20.426;2023-12-20T04:45:14;98576.75;;;8.02;41.19
52745;BME280;38637;49.984;20.426;2023-12-20T04:47:41;98569.66;;;8.01;41.39
52745;BME280;38637;49.984;20.426;2023-12-20T04:50:07;98578.09;;;7.99;41.20
52745;BME280;38637;49.984;20.426;2023-12-20T04:52:33;98571.00;;;7.98;41.83
52745;BME280;38637;49.984;20.426;2023-12-20T04:54:58;98574.00;;;7.97;41.83
52745;BME280;38637;49.984;20.426;2023-12-20T04:57:24;98567.13;;;7.89;41.83
52745;BME280;38637;49.984;20.426;2023-12-20T04:59:50;98570.16;;;7.93;42.83
52745;BME280;38637;49.984;20.426;2023-12-20T05:02:15;98568.22;;;7.88;42.78
52745;BME280;38637;49.984;20.426;2023-12-20T05:04:40;98587.53;;;7.92;42.89
52745;BME280;38637;49.984;20.426;2023-12-20T05:07:06;98587.53;;;7.92;43.20
52745;BME280;38637;49.984;20.426;2023-12-20T05:09:32;98590.25;;;7.92;43.50
52745;BME280;38637;49.984;20.426;2023-12-20T05:11:57;98587.00;;;7.90;43.28
52745;BME280;38637;49.984;20.426;2023-12-20T05:14:22;98588.88;;;7.89;43.81
52745;BME280;38637;49.984;20.426;2023-12-20T05:16:47;98593.22;;;7.85;44.03
52745;BME280;38637;49.984;20.426;2023-12-20T05:19:13;98579.06;;;7.83;44.09
52745;BME280;38637;49.984;20.426;2023-12-20T05:21:39;98588.03;;;7.83;44.57
52745;BME280;38637;49.984;20.426;2023-12-20T05:24:05;98586.69;;;7.81;44.89
52745;BME280;38637;49.984;20.426;2023-12-20T05:26:30;98587.72;;;7.75;45.27
52745;BME280;38637;49.984;20.426;2023-12-20T05:28:55;98597.50;;;7.76;46.18
52745;BME280;38637;49.984;20.426;2023-12-20T05:31:21;98572.09;;;7.55;47.19
52745;BME280;38637;49.984;20.426;2023-12-20T05:33:46;98584.41;;;7.68;46.88
52745;BME280;38637;49.984;20.426;2023-12-20T05:36:11;98589.03;;;7.67;46.59
52745;BME280;38637;49.984;20.426;2023-12-20T05:38:38;98592.56;;;7.68;46.89
52745;BME280;38637;49.984;20.426;2023-12-20T05:41:04;98591.75;;;7.67;46.54
52745;BME280;38637;49.984;20.426;2023-12-20T05:43:29;98592.25;;;7.64;46.31
52745;BME280;38637;49.984;20.426;2023-12-20T05:45:55;98602.31;;;7.64;47.04
52745;BME280;38637;49.984;20.426;2023-12-20T05:48:20;98604.75;;;7.60;47.32
52745;BME280;38637;49.984;20.426;2023-12-20T05:50:45;98593.31;;;7.58;48.08
52745;BME280;38637;49.984;20.426;2023-12-20T05:53:11;98596.31;;;7.56;48.32
52745;BME280;38637;49.984;20.426;2023-12-20T05:55:36;98568.75;;;7.43;48.24
52745;BME280;38637;49.984;20.426;2023-12-20T05:58:01;98596.50;;;7.50;49.18
52745;BME280;38637;49.984;20.426;2023-12-20T06:00:26;98600.06;;;7.50;49.76
52745;BME280;38637;49.984;20.426;2023-12-20T06:02:52;98603.53;;;7.46;50.52
52745;BME280;38637;49.984;20.426;2023-12-20T06:05:17;98596.44;;;7.40;50.87
52745;BME280;38637;49.984;20.426;2023-12-20T06:07:43;98597.78;;;7.37;51.32
52745;BME280;38637;49.984;20.426;2023-12-20T06:10:09;98581.75;;;7.35;51.95
52745;BME280;38637;49.984;20.426;2023-12-20T06:12:35;98580.38;;;7.33;51.91
52745;BME280;38637;49.984;20.426;2023-12-20T06:15:01;98588.25;;;7.34;52.80
52745;BME280;38637;49.984;20.426;2023-12-20T06:17:27;98563.97;;;7.18;53.23
52745;BME280;38637;49.984;20.426;2023-12-20T06:19:55;98594.72;;;7.28;53.41
52745;BME280;38637;49.984;20.426;2023-12-20T06:22:20;98599.59;;;7.26;53.81
52745;BME280;38637;49.984;20.426;2023-12-20T06:24:45;98598.22;;;7.24;54.18
52745;BME280;38637;49.984;20.426;2023-12-20T06:27:11;98597.34;;;7.18;55.50
52745;BME280;38637;49.984;20.426;2023-12-20T06:29:36;98616.56;;;7.11;56.26
52745;BME280;38637;49.984;20.426;2023-12-20T06:32:02;98593.16;;;7.05;57.25
52745;BME280;38637;49.984;20.426;2023-12-20T06:34:27;98612.19;;;7.05;59.12
52745;BME280;38637;49.984;20.426;2023-12-20T06:36:52;98619.16;;;6.96;59.60
52745;BME280;38637;49.984;20.426;2023-12-20T06:39:18;98623.19;;;6.94;61.42
52745;BME280;38637;49.984;20.426;2023-12-20T06:41:43;98612.53;;;6.87;61.98
52745;BME280;38637;49.984;20.426;2023-12-20T06:44:08;98606.00;;;6.83;62.36
52745;BME280;38637;49.984;20.426;2023-12-20T06:46:34;98607.06;;;6.82;63.52
52745;BME280;38637;49.984;20.426;2023-12-20T06:49:00;98619.50;;;6.78;64.42
52745;BME280;38637;49.984;20.426;2023-12-20T06:51:25;98606.91;;;6.66;65.05
52745;BME280;38637;49.984;20.426;2023-12-20T06:53:54;98616.72;;;6.73;66.09
52745;BME280;38637;49.984;20.426;2023-12-20T06:56:19;98618.00;;;6.65;68.34
52745;BME280;38637;49.984;20.426;2023-12-20T06:58:45;98587.06;;;6.39;70.40
52745;BME280;38637;49.984;20.426;2023-12-20T07:01:14;98600.28;;;6.57;70.81
52745;BME280;38637;49.984;20.426;2023-12-20T07:03:39;98609.94;;;6.48;73.05
52745;BME280;38637;49.984;20.426;2023-12-20T07:06:05;98626.22;;;6.48;74.22
52745;BME280;38637;49.984;20.426;2023-12-20T07:08:30;98583.84;;;6.20;74.85
52745;BME280;38637;49.984;20.426;2023-12-20T07:10:56;98628.53;;;6.39;75.89
52745;BME280;38637;49.984;20.426;2023-12-20T07:13:21;98627.50;;;6.40;76.08
52745;BME280;38637;49.984;20.426;2023-12-20T07:15:48;98632.09;;;6.40;76.90
52745;BME280;38637;49.984;20.426;2023-12-20T07:18:13;98622.88;;;6.41;76.73
52745;BME280;38637;49.984;20.426;2023-12-20T07:20:38;98621.25;;;6.40;78.11
52745;BME280;38637;49.984;20.426;2023-12-20T07:23:04;98623.41;;;6.38;79.23
52745;BME280;38637;49.984;20.426;2023-12-20T07:25:29;98628.81;;;6.38;78.97
52745;BME280;38637;49.984;20.426;2023-12-20T07:28:00;98632.59;;;6.37;80.17
52745;BME280;38637;49.984;20.426;2023-12-20T07:30:25;98631.97;;;6.30;81.85
52745;BME280;38637;49.984;20.426;2023-12-20T07:32:51;98631.03;;;6.19;83.30
52745;BME280;38637;49.984;20.426;2023-12-20T07:35:17;98639.88;;;6.14;84.68
52745;BME280;38637;49.984;20.426;2023-12-20T07:37:43;98643.91;;;6.12;85.34
52745;BME280;38637;49.984;20.426;2023-12-20T07:40:08;98613.50;;;5.88;86.51
52745;BME280;38637;49.984;20.426;2023-12-20T07:42:33;98644.38;;;6.04;86.46
52745;BME280;38637;49.984;20.426;2023-12-20T07:44:59;98632.06;;;5.96;86.60
52745;BME280;38637;49.984;20.426;2023-12-20T07:47:24;98645.69;;;6.01;86.73
52745;BME280;38637;49.984;20.426;2023-12-20T07:49:50;98627.78;;;6.00;86.74
52745;BME280;38637;49.984;20.426;2023-12-20T07:52:17;98639.84;;;6.09;86.61
52745;BME280;38637;49.984;20.426;2023-12-20T07:54:43;98636.88;;;6.11;86.28
52745;BME280;38637;49.984;20.426;2023-12-20T07:57:10;98655.03;;;6.10;86.82
52745;BME280;38637;49.984;20.426;2023-12-20T07:59:36;98652.56;;;6.09;87.33
52745;BME280;38637;49.984;20.426;2023-12-20T08:02:01;98615.31;;;5.82;87.71
52745;BME280;38637;49.984;20.426;2023-12-20T08:04:26;98657.97;;;6.09;87.54
52745;BME280;38637;49.984;20.426;2023-12-20T08:06:52;98654.53;;;5.96;89.09
52745;BME280;38637;49.984;20.426;2023-12-20T08:09:17;98672.34;;;5.92;89.30
52745;BME280;38637;49.984;20.426;2023-12-20T08:11:46;98670.25;;;5.94;89.89
52745;BME280;38637;49.984;20.426;2023-12-20T08:14:12;98666.78;;;5.82;90.47
52745;BME280;38637;49.984;20.426;2023-12-20T08:16:37;98674.59;;;5.79;91.42
52745;BME280;38637;49.984;20.426;2023-12-20T08:19:03;98672.13;;;5.77;91.87
52745;BME280;38637;49.984;20.426;2023-12-20T08:21:28;98669.31;;;5.72;92.04
52745;BME280;38637;49.984;20.426;2023-12-20T08:23:53;98676.72;;;5.76;92.54
52745;BME280;38637;49.984;20.426;2023-12-20T08:26:19;98661.47;;;5.70;92.92
52745;BME280;38637;49.984;20.426;2023-12-20T08:28:46;98657.44;;;5.73;93.29
52745;BME280;38637;49.984;20.426;2023-12-20T08:31:16;98661.38;;;5.82;93.26
52745;BME280;38637;49.984;20.426;2023-12-20T08:33:43;98670.00;;;5.79;93.05
52745;BME280;38637;49.984;20.426;2023-12-20T08:36:08;98674.00;;;5.76;92.99
52745;BME280;38637;49.984;20.426;2023-12-20T08:38:34;98653.97;;;5.78;93.25
52745;BME280;38637;49.984;20.426;2023-12-20T08:40:59;98648.38;;;5.84;93.21
52745;BME280;38637;49.984;20.426;2023-12-20T08:43:24;98663.81;;;5.84;92.92
52745;BME280;38637;49.984;20.426;2023-12-20T08:45:50;98663.91;;;5.89;92.48
52745;BME280;38637;49.984;20.426;2023-12-20T08:48:15;98659.47;;;5.83;92.29
52745;BME280;38637;49.984;20.426;2023-12-20T08:50:40;98655.13;;;5.82;92.38
52745;BME280;38637;49.984;20.426;2023-12-20T08:53:06;98649.47;;;5.83;92.13
52745;BME280;38637;49.984;20.426;2023-12-20T08:55:32;98676.06;;;5.86;91.58
52745;BME280;38637;49.984;20.426;2023-12-20T08:57:58;98650.78;;;5.81;92.60
52745;BME280;38637;49.984;20.426;2023-12-20T09:00:23;98685.25;;;5.85;91.73
52745;BME280;38637;49.984;20.426;2023-12-20T09:02:52;98667.84;;;5.81;92.57
52745;BME280;38637;49.984;20.426;2023-12-20T09:05:17;98671.88;;;5.95;92.33
52745;BME280;38637;49.984;20.426;2023-12-20T09:07:43;98649.41;;;5.95;91.64
52745;BME280;38637;49.984;20.426;2023-12-20T09:10:08;98645.06;;;5.94;91.86
52745;BME280;38637;49.984;20.426;2023-12-20T09:12:33;98625.75;;;5.73;92.02
52745;BME280;38637;49.984;20.426;2023-12-20T09:14:59;98654.00;;;5.94;91.87
52745;BME280;38637;49.984;20.426;2023-12-20T09:17:27;98664.56;;;5.96;92.01
52745;BME280;38637;49.984;20.426;2023-12-20T09:19:53;98661.88;;;5.96;92.14
52745;BME280;38637;49.984;20.426;2023-12-20T09:22:19;98642.53;;;5.92;91.22
52745;BME280;38637;49.984;20.426;2023-12-20T09:24:44;98633.94;;;5.95;91.46
52745;BME280;38637;49.984;20.426;2023-12-20T09:27:10;98635.03;;;5.94;91.70
52745;BME280;38637;49.984;20.426;2023-12-20T09:29:35;98609.72;;;5.72;91.48
52745;BME280;38637;49.984;20.426;2023-12-20T09:32:00;98617.22;;;5.82;91.67
52745;BME280;38637;49.984;20.426;2023-12-20T09:34:26;98651.59;;;5.81;92.20
52745;BME280;38637;49.984;20.426;2023-12-20T09:36:52;98660.38;;;5.71;91.98
52745;BME280;38637;49.984;20.426;2023-12-20T09:39:18;98647.78;;;5.60;93.29
52745;BME280;38637;49.984;20.426;2023-12-20T09:42:00;98653.41;;;5.59;94.64
52745;BME280;38637;49.984;20.426;2023-12-20T09:44:26;98641.13;;;5.51;94.40
52745;BME280;38637;49.984;20.426;2023-12-20T09:46:52;98650.97;;;5.57;94.44
52745;BME280;38637;49.984;20.426;2023-12-20T09:49:19;98639.28;;;5.57;94.52
52745;BME280;38637;49.984;20.426;2023-12-20T09:51:46;98650.47;;;5.60;94.88
52745;BME280;38637;49.984;20.426;2023-12-20T09:54:16;98650.88;;;5.52;96.85
52745;BME280;38637;49.984;20.426;2023-12-20T09:56:42;98637.75;;;5.44;97.72
52745;BME280;38637;49.984;20.426;2023-12-20T09:59:08;98598.63;;;5.18;98.54
52745;BME280;38637;49.984;20.426;2023-12-20T10:01:34;98632.00;;;5.40;99.73
52745;BME280;38637;49.984;20.426;2023-12-20T10:04:00;98633.56;;;5.36;99.90
52745;BME280;38637;49.984;20.426;2023-12-20T10:06:25;98633.56;;;5.36;100.00
52745;BME280;38637;49.984;20.426;2023-12-20T10:08:51;98634.38;;;5.37;99.75
52745;BME280;38637;49.984;20.426;2023-12-20T10:11:18;98623.78;;;5.35;100.00
52745;BME280;38637;49.984;20.426;2023-12-20T10:13:47;98637.00;;;5.32;100.00
52745;BME280;38637;49.984;20.426;2023-12-20T10:16:13;98634.28;;;5.32;100.00
52745;BME280;38637;49.984;20.426;2023-12-20T10:18:38;98631.25;;;5.28;100.00
52745;BME280;38637;49.984;20.426;2023-12-20T10:21:04;98617.63;;;5.23;100.00
52745;BME280;38637;49.984;20.426;2023-12-20T10:23:30;98617.16;;;5.26;100.00
52745;BME280;38637;49.984;20.426;2023-12-20T10:25:59;98629.16;;;5.30;100.00
52745;BME280;38637;49.984;20.426;2023-12-20T10:28:25;98635.59;;;5.29;100.00
52745;BME280;38637;49.984;20.426;2023-12-20T10:30:54;98608.28;;;5.14;100.00
52745;BME280;38637;49.984;20.426;2023-12-20T10:33:26;98637.75;;;5.27;100.00
52745;BME280;38637;49.984;20.426;2023-12-20T10:35:52;98621.25;;;5.28;100.00
52745;BME280;38637;49.984;20.426;2023-12-20T10:38:18;98635.06;;;5.27;100.00
52745;BME280;38637;49.984;20.426;2023-12-20T10:40:45;98623.91;;;5.23;100.00
52745;BME280;38637;49.984;20.426;2023-12-20T10:43:11;98623.41;;;5.26;100.00
52745;BME280;38637;49.984;20.426;2023-12-20T10:45:36;98625.25;;;5.26;100.00
52745;BME280;38637;49.984;20.426;2023-12-20T10:48:02;98622.22;;;5.22;100.00
52745;BME280;38637;49.984;20.426;2023-12-20T10:50:28;98616.91;;;5.27;100.00
52745;BME280;38637;49.984;20.426;2023-12-20T10:52:54;98613.47;;;5.32;100.00
52745;BME280;38637;49.984;20.426;2023-12-20T10:55:22;98612.97;;;5.35;100.00
52745;BME280;38637;49.984;20.426;2023-12-20T10:57:47;98621.09;;;5.35;100.00
52745;BME280;38637;49.984;20.426;2023-12-20T11:00:17;98606.19;;;5.33;100.00
52745;BME280;38637;49.984;20.426;2023-12-20T11:02:42;98608.13;;;5.37;100.00
52745;BME280;38637;49.984;20.426;2023-12-20T11:07:59;98601.25;;;5.29;100.00
52745;BME280;38637;49.984;20.426;2023-12-20T11:10:38;98600.28;;;5.36;100.00
52745;BME280;38637;49.984;20.426;2023-12-20T11:13:17;98572.63;;;5.17;100.00
52745;BME280;38637;49.984;20.426;2023-12-20T11:15:42;98595.00;;;5.29;100.00
52745;BME280;38637;49.984;20.426;2023-12-20T11:18:08;98601.41;;;5.23;100.00
52745;BME280;38637;49.984;20.426;2023-12-20T11:20:41;98588.44;;;5.25;100.00
52745;BME280;38637;49.984;20.426;2023-12-20T11:23:08;98590.56;;;5.23;100.00
52745;BME280;38637;49.984;20.426;2023-12-20T11:25:46;98605.19;;;5.22;100.00
52745;BME280;38637;49.984;20.426;2023-12-20T11:28:12;98589.44;;;5.19;100.00
52745;BME280;38637;49.984;20.426;2023-12-20T11:30:49;98595.16;;;5.22;100.00
52745;BME280;38637;49.984;20.426;2023-12-20T11:33:15;98589.84;;;5.27;100.00
52745;BME280;38637;49.984;20.426;2023-12-20T11:35:42;98586.00;;;5.23;100.00
52745;BME280;38637;49.984;20.426;2023-12-20T11:38:09;98584.94;;;5.24;100.00
52745;BME280;38637;49.984;20.426;2023-12-20T11:40:35;98589.34;;;5.14;99.34
52745;BME280;38637;49.984;20.426;2023-12-20T11:43:01;98573.44;;;5.00;100.00
52745;BME280;38637;49.984;20.426;2023-12-20T11:45:26;98588.59;;;5.01;100.00
52745;BME280;38637;49.984;20.426;2023-12-20T11:47:52;98582.13;;;5.02;100.00
52745;BME280;38637;49.984;20.426;2023-12-20T11:50:21;98595.50;;;5.09;100.00
52745;BME280;38637;49.984;20.426;2023-12-20T11:52:48;98579.69;;;5.18;100.00
52745;BME280;38637;49.984;20.426;2023-12-20T11:55:14;98595.97;;;5.23;100.00
52745;BME280;38637;49.984;20.426;2023-12-20T11:57:40;98591.16;;;5.25;100.00
52745;BME280;38637;49.984;20.426;2023-12-20T12:00:06;98572.69;;;5.22;100.00
52745;BME280;38637;49.984;20.426;2023-12-20T12:02:32;98587.13;;;5.27;100.00
52745;BME280;38637;49.984;20.426;2023-12-20T12:04:57;98585.84;;;5.30;100.00
52745;BME280;38637;49.984;20.426;2023-12-20T12:07:24;98589.09;;;5.32;100.00
52745;BME280;38637;49.984;20.426;2023-12-20T12:09:49;98598.56;;;5.29;100.00
52745;BME280;38637;49.984;20.426;2023-12-20T12:12:15;98588.78;;;5.28;100.00
52745;BME280;38637;49.984;20.426;2023-12-20T12:14:40;98592.28;;;5.29;100.00
52745;BME280;38637;49.984;20.426;2023-12-20T12:17:12;98595.84;;;5.29;100.00
52745;BME280;38637;49.984;20.426;2023-12-20T12:19:42;98582.81;;;5.26;100.00
52745;BME280;38637;49.984;20.426;2023-12-20T12:22:09;98597.97;;;5.27;100.00
52745;BME280;38637;49.984;20.426;2023-12-20T12:24:43;98591.75;;;5.27;100.00
52745;BME280;38637;49.984;20.426;2023-12-20T12:27:10;98592.56;;;5.27;100.00
52745;BME280;38637;49.984;20.426;2023-12-20T12:29:36;98592.88;;;5.31;99.68
52745;BME280;38637;49.984;20.426;2023-12-20T12:32:05;98593.19;;;5.35;99.44
52745;BME280;38637;49.984;20.426;2023-12-20T12:34:32;98562.78;;;5.11;98.30
52745;BME280;38637;49.984;20.426;2023-12-20T12:36:57;98572.94;;;5.37;98.50
52745;BME280;38637;49.984;20.426;2023-12-20T12:39:23;98566.38;;;5.33;98.61
52745;BME280;38637;49.984;20.426;2023-12-20T12:41:52;98554.34;;;5.24;98.46
52745;BME280;38637;49.984;20.426;2023-12-20T12:44:18;98559.72;;;5.41;97.59
52745;BME280;38637;49.984;20.426;2023-12-20T12:46:45;98559.50;;;5.42;98.31
52745;BME280;38637;49.984;20.426;2023-12-20T12:49:10;98553.50;;;5.40;97.62
52745;BME280;38637;49.984;20.426;2023-12-20T12:51:36;98547.91;;;5.47;98.31
52745;BME280;38637;49.984;20.426;2023-12-20T12:54:01;98540.59;;;5.47;97.87